sensor_id;sensor_type;location;lat;lon;timestamp;pressure;altitude;pressure_sealevel;temperature;humidity
29121;BME280;16191;49.548;8.658;2023-02-19T00:01:41;100909.13;;;9.79;100.00
29121;BME280;16191;49.548;8.658;2023-02-19T00:04:12;100910.91;;;9.77;100.00
29121;BME280;16191;49.548;8.658;2023-02-19T00:06:40;100898.94;;;9.71;100.00
29121;BME280;16191;49.548;8.658;2023-02-19T00:09:09;100888.50;;;9.71;100.00
29121;BME280;16191;49.548;8.658;2023-02-19T00:11:37;100881.66;;;9.67;100.00
29121;BME280;16191;49.548;8.658;2023-02-19T00:14:04;100879.00;;;9.69;100.00
29121;BME280;16191;49.548;8.658;2023-02-19T00:16:36;100880.75;;;9.68;100.00
29121;BME280;16191;49.548;8.658;2023-02-19T00:19:05;100880.81;;;9.67;100.00
29121;BME280;16191;49.548;8.658;2023-02-19T00:21:33;100885.97;;;9.68;100.00
29121;BME280;16191;49.548;8.658;2023-02-19T00:24:02;100886.91;;;9.66;100.00
29121;BME280;16191;49.548;8.658;2023-02-19T00:26:29;100896.44;;;9.67;100.00
29121;BME280;16191;49.548;8.658;2023-02-19T00:28:57;100889.50;;;9.66;100.00
29121;BME280;16191;49.548;8.658;2023-02-19T00:31:28;100892.09;;;9.67;100.00
29121;BME280;16191;49.548;8.658;2023-02-19T00:34:01;100898.19;;;9.66;100.00
29121;BME280;16191;49.548;8.658;2023-02-19T00:36:28;100898.19;;;9.66;100.00
29121;BME280;16191;49.548;8.658;2023-02-19T00:38:56;100905.97;;;9.68;100.00
29121;BME280;16191;49.548;8.658;2023-02-19T00:41:23;100894.69;;;9.67;100.00
29121;BME280;16191;49.548;8.658;2023-02-19T00:43:59;100894.69;;;9.67;100.00
29121;BME280;16191;49.548;8.658;2023-02-19T00:46:43;100881.66;;;9.67;100.00
29121;BME280;16191;49.548;8.658;2023-02-19T00:49:18;100897.25;;;9.69;100.00
29121;BME280;16191;49.548;8.658;2023-02-19T00:51:46;100890.38;;;9.66;100.00
29121;BME280;16191;49.548;8.658;2023-02-19T00:54:13;100877.31;;;9.68;100.00
29121;BME280;16191;49.548;8.658;2023-02-19T00:56:40;100884.22;;;9.69;100.00
29121;BME280;16191;49.548;8.658;2023-02-19T00:59:07;100885.94;;;9.70;100.00
29121;BME280;16191;49.548;8.658;2023-02-19T01:01:34;100881.59;;;9.70;100.00
29121;BME280;16191;49.548;8.658;2023-02-19T01:04:01;100882.47;;;9.69;100.00
29121;BME280;16191;49.548;8.658;2023-02-19T01:06:29;100882.50;;;9.68;100.00
29121;BME280;16191;49.548;8.658;2023-02-19T01:08:57;100893.78;;;9.68;100.00
29121;BME280;16191;49.548;8.658;2023-02-19T01:11:24;100889.41;;;9.70;100.00
29121;BME280;16191;49.548;8.658;2023-02-19T01:13:51;100894.66;;;9.69;100.00
29121;BME280;16191;49.548;8.658;2023-02-19T01:16:20;100889.47;;;9.67;100.00
29121;BME280;16191;49.548;8.658;2023-02-19T01:18:47;100896.44;;;9.67;100.00
29121;BME280;16191;49.548;8.658;2023-02-19T01:21:22;100896.44;;;9.67;100.00
29121;BME280;16191;49.548;8.658;2023-02-19T01:23:50;100903.41;;;9.66;100.00
29121;BME280;16191;49.548;8.658;2023-02-19T01:26:21;100900.75;;;9.68;100.00
29121;BME280;16191;49.548;8.658;2023-02-19T01:28:48;100881.69;;;9.66;100.00
29121;BME280;16191;49.548;8.658;2023-02-19T01:31:20;100871.31;;;9.64;100.00
29121;BME280;16191;49.548;8.658;2023-02-19T01:33:50;100880.91;;;9.62;100.00
29121;BME280;16191;49.548;8.658;2023-02-19T01:36:17;100876.59;;;9.61;100.00
29121;BME280;16191;49.548;8.658;2023-02-19T01:38:44;100870.50;;;9.62;100.00
29121;BME280;16191;49.548;8.658;2023-02-19T01:41:14;100873.28;;;9.54;100.00
29121;BME280;16191;49.548;8.658;2023-02-19T01:43:54;100876.91;;;9.50;100.00
29121;BME280;16191;49.548;8.658;2023-02-19T01:46:27;100879.63;;;9.46;100.00
29121;BME280;16191;49.548;8.658;2023-02-19T01:48:56;100878.94;;;9.38;100.00
29121;BME280;16191;49.548;8.658;2023-02-19T01:51:29;100874.81;;;9.31;100.00
29121;BME280;16191;49.548;8.658;2023-02-19T01:53:59;100867.94;;;9.28;100.00
29121;BME280;16191;49.548;8.658;2023-02-19T01:56:30;100871.34;;;9.30;100.00
29121;BME280;16191;49.548;8.658;2023-02-19T01:58:58;100864.47;;;9.27;100.00
29121;BME280;16191;49.548;8.658;2023-02-19T02:01:26;100861.94;;;9.24;100.00
29121;BME280;16191;49.548;8.658;2023-02-19T02:03:52;100857.59;;;9.25;100.00
29121;BME280;16191;49.548;8.658;2023-02-19T02:06:23;100861.13;;;9.22;100.00
29121;BME280;16191;49.548;8.658;2023-02-19T02:08:53;100857.59;;;9.25;100.00
29121;BME280;16191;49.548;8.658;2023-02-19T02:11:50;100855.81;;;9.27;100.00
29121;BME280;16191;49.548;8.658;2023-02-19T02:14:24;100856.69;;;9.26;100.00
29121;BME280;16191;49.548;8.658;2023-02-19T02:20:07;100853.28;;;9.24;100.00
29121;BME280;16191;49.548;8.658;2023-02-19T02:26:00;100845.50;;;9.22;100.00
29121;BME280;16191;49.548;8.658;2023-02-19T02:31:32;100838.66;;;9.18;100.00
29121;BME280;16191;49.548;8.658;2023-02-19T02:34:17;100836.88;;;9.20;100.00
29121;BME280;16191;49.548;8.658;2023-02-19T02:36:47;100836.91;;;9.19;100.00
29121;BME280;16191;49.548;8.658;2023-02-19T02:39:18;100830.03;;;9.16;100.00
29121;BME280;16191;49.548;8.658;2023-02-19T02:41:54;100833.41;;;9.20;100.00
29121;BME280;16191;49.548;8.658;2023-02-19T02:44:44;100828.34;;;9.14;100.00
29121;BME280;16191;49.548;8.658;2023-02-19T02:47:35;100825.81;;;9.11;100.00
29121;BME280;16191;49.548;8.658;2023-02-19T02:50:16;100830.19;;;9.10;100.00
29121;BME280;16191;49.548;8.658;2023-02-19T02:52:45;100821.66;;;9.05;100.00
29121;BME280;16191;49.548;8.658;2023-02-19T02:55:38;100825.09;;;9.06;100.00
29121;BME280;16191;49.548;8.658;2023-02-19T02:58:09;100825.22;;;9.01;100.00
29121;BME280;16191;49.548;8.658;2023-02-19T03:00:42;100820.91;;;9.00;100.00
29121;BME280;16191;49.548;8.658;2023-02-19T03:03:29;100833.13;;;8.97;100.00
29121;BME280;16191;49.548;8.658;2023-02-19T03:06:03;100824.47;;;8.96;100.00
29121;BME280;16191;49.548;8.658;2023-02-19T03:11:05;100826.38;;;8.89;100.00
29121;BME280;16191;49.548;8.658;2023-02-19T03:13:59;100828.19;;;8.87;100.00
29121;BME280;16191;49.548;8.658;2023-02-19T03:16:47;100820.47;;;8.83;100.00
29121;BME280;16191;49.548;8.658;2023-02-19T03:19:41;100820.47;;;8.83;100.00
29121;BME280;16191;49.548;8.658;2023-02-19T03:22:30;100818.00;;;8.77;100.00
29121;BME280;16191;49.548;8.658;2023-02-19T03:25:09;100817.16;;;8.76;100.00
29121;BME280;16191;49.548;8.658;2023-02-19T03:27:59;100824.97;;;8.76;100.00
29121;BME280;16191;49.548;8.658;2023-02-19T03:30:36;100831.13;;;8.72;100.00
29121;BME280;16191;49.548;8.658;2023-02-19T03:33:09;100832.94;;;8.69;100.00
29121;BME280;16191;49.548;8.658;2023-02-19T03:35:48;100827.06;;;8.62;100.00
29121;BME280;16191;49.548;8.658;2023-02-19T03:38:27;100818.31;;;8.65;100.00
29121;BME280;16191;49.548;8.658;2023-02-19T03:43:38;100833.09;;;8.63;100.00
29121;BME280;16191;49.548;8.658;2023-02-19T03:46:10;100822.75;;;8.61;100.00
29121;BME280;16191;49.548;8.658;2023-02-19T03:48:57;100821.09;;;8.57;100.00
29121;BME280;16191;49.548;8.658;2023-02-19T03:51:41;100828.84;;;8.60;100.00
29121;BME280;16191;49.548;8.658;2023-02-19T03:54:16;100844.44;;;8.60;100.00
29121;BME280;16191;49.548;8.658;2023-02-19T03:56:51;100839.31;;;8.57;100.00
29121;BME280;16191;49.548;8.658;2023-02-19T03:59:31;100833.25;;;8.56;100.00
29121;BME280;16191;49.548;8.658;2023-02-19T04:02:15;100836.72;;;8.55;100.00
29121;BME280;16191;49.548;8.658;2023-02-19T04:04:50;100839.34;;;8.55;100.00
29121;BME280;16191;49.548;8.658;2023-02-19T04:07:22;100842.81;;;8.54;100.00
29121;BME280;16191;49.548;8.658;2023-02-19T04:09:51;100844.63;;;8.51;100.00
29121;BME280;16191;49.548;8.658;2023-02-19T04:12:20;100849.81;;;8.52;100.00
29121;BME280;16191;49.548;8.658;2023-02-19T04:15:02;100855.91;;;8.51;100.00
29121;BME280;16191;49.548;8.658;2023-02-19T04:17:41;100854.22;;;8.49;100.00
29121;BME280;16191;49.548;8.658;2023-02-19T04:20:10;100861.19;;;8.47;100.00
29121;BME280;16191;49.548;8.658;2023-02-19T04:22:40;100854.19;;;8.50;100.00
29121;BME280;16191;49.548;8.658;2023-02-19T04:25:08;100855.00;;;8.52;100.00
29121;BME280;16191;49.548;8.658;2023-02-19T04:27:37;100858.72;;;8.42;100.00
29121;BME280;16191;49.548;8.658;2023-02-19T04:30:10;100872.47;;;8.46;100.00
29121;BME280;16191;49.548;8.658;2023-02-19T04:32:37;100883.91;;;8.40;100.00
29121;BME280;16191;49.548;8.658;2023-02-19T04:35:03;100870.09;;;8.37;100.00
29121;BME280;16191;49.548;8.658;2023-02-19T04:37:30;100865.00;;;8.32;100.00
29121;BME280;16191;49.548;8.658;2023-02-19T04:39:57;100864.13;;;8.33;100.00
29121;BME280;16191;49.548;8.658;2023-02-19T04:42:23;100863.34;;;8.26;100.00
29121;BME280;16191;49.548;8.658;2023-02-19T04:44:50;100861.56;;;8.29;100.00
29121;BME280;16191;49.548;8.658;2023-02-19T04:47:16;100860.00;;;8.21;100.00
29121;BME280;16191;49.548;8.658;2023-02-19T04:49:44;100860.81;;;8.23;100.00
29121;BME280;16191;49.548;8.658;2023-02-19T04:52:11;100859.13;;;8.22;100.00
29121;BME280;16191;49.548;8.658;2023-02-19T04:54:38;100868.72;;;8.19;100.00
29121;BME280;16191;49.548;8.658;2023-02-19T04:57:04;100872.06;;;8.24;100.00
29121;BME280;16191;49.548;8.658;2023-02-19T04:59:32;100875.75;;;8.14;100.00
29121;BME280;16191;49.548;8.658;2023-02-19T05:01:59;100876.66;;;8.13;100.00
29121;BME280;16191;49.548;8.658;2023-02-19T05:04:25;100883.56;;;8.14;100.00
29121;BME280;16191;49.548;8.658;2023-02-19T05:06:52;100892.31;;;8.10;100.00
29121;BME280;16191;49.548;8.658;2023-02-19T05:09:19;100887.97;;;8.10;100.00
29121;BME280;16191;49.548;8.658;2023-02-19T05:11:46;100894.16;;;8.03;100.00
29121;BME280;16191;49.548;8.658;2023-02-19T05:14:12;100893.31;;;8.03;100.00
29121;BME280;16191;49.548;8.658;2023-02-19T05:16:39;100893.38;;;8.00;100.00
29121;BME280;16191;49.548;8.658;2023-02-19T05:19:06;100899.38;;;8.02;100.00
29121;BME280;16191;49.548;8.658;2023-02-19T05:21:32;100900.22;;;8.04;100.00
29121;BME280;16191;49.548;8.658;2023-02-19T05:23:59;100913.31;;;8.01;100.00
29121;BME280;16191;49.548;8.658;2023-02-19T05:26:26;100908.00;;;8.04;100.00
29121;BME280;16191;49.548;8.658;2023-02-19T05:28:53;100909.84;;;8.00;100.00
29121;BME280;16191;49.548;8.658;2023-02-19T05:31:20;100917.63;;;8.00;100.00
29121;BME280;16191;49.548;8.658;2023-02-19T05:33:47;100905.53;;;7.99;100.00
29121;BME280;16191;49.548;8.658;2023-02-19T05:36:19;100920.25;;;7.99;100.00
29121;BME280;16191;49.548;8.658;2023-02-19T05:38:47;100912.50;;;7.97;100.00
29121;BME280;16191;49.548;8.658;2023-02-19T05:41:19;100925.53;;;7.94;100.00
29121;BME280;16191;49.548;8.658;2023-02-19T05:43:47;100930.72;;;7.96;100.00
29121;BME280;16191;49.548;8.658;2023-02-19T05:46:16;100928.16;;;7.94;100.00
29121;BME280;16191;49.548;8.658;2023-02-19T05:48:46;100936.69;;;8.01;100.00
29121;BME280;16191;49.548;8.658;2023-02-19T05:51:16;100934.16;;;7.96;100.00
29121;BME280;16191;49.548;8.658;2023-02-19T05:53:43;100940.28;;;7.94;100.00
29121;BME280;16191;49.548;8.658;2023-02-19T05:58:49;100941.16;;;7.93;100.00
29121;BME280;16191;49.548;8.658;2023-02-19T06:01:18;100932.47;;;7.94;100.00
29121;BME280;16191;49.548;8.658;2023-02-19T06:03:45;100928.22;;;7.89;100.00
29121;BME280;16191;49.548;8.658;2023-02-19T06:06:13;100942.13;;;7.87;100.00
29121;BME280;16191;49.548;8.658;2023-02-19T06:08:40;100946.41;;;7.89;100.00
29121;BME280;16191;49.548;8.658;2023-02-19T06:11:06;100936.81;;;7.93;100.00
29121;BME280;16191;49.548;8.658;2023-02-19T06:13:34;100949.84;;;7.91;100.00
29121;BME280;16191;49.548;8.658;2023-02-19T06:16:04;100963.75;;;7.89;100.00
29121;BME280;16191;49.548;8.658;2023-02-19T06:18:31;100972.44;;;7.88;100.00
29121;BME280;16191;49.548;8.658;2023-02-19T06:21:03;100975.03;;;7.86;100.00
29121;BME280;16191;49.548;8.658;2023-02-19T06:23:30;100981.09;;;7.87;100.00
29121;BME280;16191;49.548;8.658;2023-02-19T06:26:22;100988.81;;;7.91;100.00
29121;BME280;16191;49.548;8.658;2023-02-19T06:28:50;100985.38;;;7.91;100.00
29121;BME280;16191;49.548;8.658;2023-02-19T06:31:20;101000.09;;;7.90;100.00
29121;BME280;16191;49.548;8.658;2023-02-19T06:33:47;101002.69;;;7.90;100.00
29121;BME280;16191;49.548;8.658;2023-02-19T06:36:18;100992.25;;;7.94;100.00
29121;BME280;16191;49.548;8.658;2023-02-19T06:38:45;100999.16;;;7.95;100.00
29121;BME280;16191;49.548;8.658;2023-02-19T06:41:12;100997.44;;;7.95;100.00
29121;BME280;16191;49.548;8.658;2023-02-19T06:43:40;101006.09;;;7.94;100.00
29121;BME280;16191;49.548;8.658;2023-02-19T06:46:07;101010.41;;;7.95;100.00
29121;BME280;16191;49.548;8.658;2023-02-19T06:48:34;100999.09;;;7.99;100.00
29121;BME280;16191;49.548;8.658;2023-02-19T06:51:01;101006.91;;;7.98;100.00
29121;BME280;16191;49.548;8.658;2023-02-19T06:53:28;101012.16;;;7.95;100.00
29121;BME280;16191;49.548;8.658;2023-02-19T06:56:05;101012.94;;;8.00;100.00
29121;BME280;16191;49.548;8.658;2023-02-19T06:58:33;101025.06;;;7.99;100.00
29121;BME280;16191;49.548;8.658;2023-02-19T07:00:59;101030.19;;;8.02;100.00
29121;BME280;16191;49.548;8.658;2023-02-19T07:03:26;101034.59;;;8.00;100.00
29121;BME280;16191;49.548;8.658;2023-02-19T07:05:53;101033.63;;;8.04;100.00
29121;BME280;16191;49.548;8.658;2023-02-19T07:08:19;101021.50;;;8.03;100.00
29121;BME280;16191;49.548;8.658;2023-02-19T07:10:54;101025.84;;;8.03;100.00
29121;BME280;16191;49.548;8.658;2023-02-19T07:13:23;101027.53;;;8.05;100.00
29121;BME280;16191;49.548;8.658;2023-02-19T07:15:49;101037.06;;;8.06;100.00
29121;BME280;16191;49.548;8.658;2023-02-19T07:18:18;101033.69;;;8.01;100.00
29121;BME280;16191;49.548;8.658;2023-02-19T07:20:44;101024.00;;;8.09;100.00
29121;BME280;16191;49.548;8.658;2023-02-19T07:23:11;101033.63;;;8.04;100.00
29121;BME280;16191;49.548;8.658;2023-02-19T07:25:37;101033.66;;;8.03;100.00
29121;BME280;16191;49.548;8.658;2023-02-19T07:28:05;101024.97;;;8.04;100.00
29121;BME280;16191;49.548;8.658;2023-02-19T07:30:32;101024.88;;;8.10;100.00
29121;BME280;16191;49.548;8.658;2023-02-19T07:32:58;101028.41;;;8.06;100.00
29121;BME280;16191;49.548;8.658;2023-02-19T07:35:25;101027.44;;;8.11;100.00
29121;BME280;16191;49.548;8.658;2023-02-19T07:37:52;101036.97;;;8.12;100.00
29121;BME280;16191;49.548;8.658;2023-02-19T07:40:19;101030.00;;;8.14;100.00
29121;BME280;16191;49.548;8.658;2023-02-19T07:42:45;101037.69;;;8.20;100.00
29121;BME280;16191;49.548;8.658;2023-02-19T07:45:12;101044.59;;;8.21;100.00
29121;BME280;16191;49.548;8.658;2023-02-19T07:47:38;101047.16;;;8.23;100.00
29121;BME280;16191;49.548;8.658;2023-02-19T07:50:05;101042.78;;;8.25;100.00
29121;BME280;16191;49.548;8.658;2023-02-19T07:52:33;101039.31;;;8.24;100.00
29121;BME280;16191;49.548;8.658;2023-02-19T07:54:59;101036.69;;;8.26;100.00
29121;BME280;16191;49.548;8.658;2023-02-19T07:57:27;101046.22;;;8.27;100.00
29121;BME280;16191;49.548;8.658;2023-02-19T07:59:54;101045.28;;;8.33;100.00
29121;BME280;16191;49.548;8.658;2023-02-19T08:02:20;101045.16;;;8.39;100.00
29121;BME280;16191;49.548;8.658;2023-02-19T08:05:06;101045.19;;;8.37;100.00
29121;BME280;16191;49.548;8.658;2023-02-19T08:07:34;101047.59;;;8.46;100.00
29121;BME280;16191;49.548;8.658;2023-02-19T08:10:02;101052.72;;;8.51;100.00
29121;BME280;16191;49.548;8.658;2023-02-19T08:12:58;101051.78;;;8.55;100.00
29121;BME280;16191;49.548;8.658;2023-02-19T08:15:54;101048.31;;;8.54;100.00
29121;BME280;16191;49.548;8.658;2023-02-19T08:18:33;101053.38;;;8.62;100.00
29121;BME280;16191;49.548;8.658;2023-02-19T08:20:59;101050.81;;;8.61;100.00
29121;BME280;16191;49.548;8.658;2023-02-19T08:23:27;101048.03;;;8.68;100.00
29121;BME280;16191;49.548;8.658;2023-02-19T08:25:56;101045.41;;;8.70;100.00
29121;BME280;16191;49.548;8.658;2023-02-19T08:28:23;101044.41;;;8.77;100.00
29121;BME280;16191;49.548;8.658;2023-02-19T08:30:51;101051.28;;;8.79;100.00
29121;BME280;16191;49.548;8.658;2023-02-19T08:33:19;101045.19;;;8.80;100.00
29121;BME280;16191;49.548;8.658;2023-02-19T08:35:46;101058.16;;;8.83;100.00
29121;BME280;16191;49.548;8.658;2023-02-19T08:38:13;101067.63;;;8.87;100.00
29121;BME280;16191;49.548;8.658;2023-02-19T08:40:42;101070.31;;;8.83;100.00
29121;BME280;16191;49.548;8.658;2023-02-19T08:43:12;101085.78;;;8.89;100.00
29121;BME280;16191;49.548;8.658;2023-02-19T08:45:40;101076.97;;;8.96;100.00
29121;BME280;16191;49.548;8.658;2023-02-19T08:48:08;101082.84;;;9.06;100.00
29121;BME280;16191;49.548;8.658;2023-02-19T08:50:35;101080.13;;;9.10;100.00
29121;BME280;16191;49.548;8.658;2023-02-19T08:53:04;101086.06;;;9.17;100.00
29121;BME280;16191;49.548;8.658;2023-02-19T08:55:32;101096.31;;;9.24;100.00
29121;BME280;16191;49.548;8.658;2023-02-19T08:57:59;101084.84;;;9.32;100.00
29121;BME280;16191;49.548;8.658;2023-02-19T09:00:26;101093.50;;;9.34;100.00
29121;BME280;16191;49.548;8.658;2023-02-19T09:02:52;101083.78;;;9.42;100.00
29121;BME280;16191;49.548;8.658;2023-02-19T09:05:19;101087.09;;;9.48;100.00
29121;BME280;16191;49.548;8.658;2023-02-19T09:07:46;101089.63;;;9.51;100.00
29121;BME280;16191;49.548;8.658;2023-02-19T09:10:13;101085.94;;;9.60;100.00
29121;BME280;16191;49.548;8.658;2023-02-19T09:12:40;101091.81;;;9.70;100.00
29121;BME280;16191;49.548;8.658;2023-02-19T09:15:07;101088.09;;;9.78;100.00
29121;BME280;16191;49.548;8.658;2023-02-19T09:17:34;101097.56;;;9.82;100.00
29121;BME280;16191;49.548;8.658;2023-02-19T09:20:00;101082.66;;;9.89;100.00
29121;BME280;16191;49.548;8.658;2023-02-19T09:22:27;101080.88;;;9.91;100.00
29121;BME280;16191;49.548;8.658;2023-02-19T09:24:53;101097.31;;;9.93;100.00
29121;BME280;16191;49.548;8.658;2023-02-19T09:27:20;101085.13;;;9.95;100.00
29121;BME280;16191;49.548;8.658;2023-02-19T09:29:47;101094.59;;;9.97;100.00
29121;BME280;16191;49.548;8.658;2023-02-19T09:32:13;101091.91;;;10.01;100.00
29121;BME280;16191;49.548;8.658;2023-02-19T09:34:43;101091.00;;;10.02;100.00
29121;BME280;16191;49.548;8.658;2023-02-19T09:37:09;101083.28;;;9.97;100.00
29121;BME280;16191;49.548;8.658;2023-02-19T09:39:35;101093.81;;;9.94;100.00
29121;BME280;16191;49.548;8.658;2023-02-19T09:42:15;101097.19;;;9.97;100.00
29121;BME280;16191;49.548;8.658;2023-02-19T09:44:47;101099.66;;;10.04;100.00
29121;BME280;16191;49.548;8.658;2023-02-19T09:47:26;101092.53;;;10.10;100.00
29121;BME280;16191;49.548;8.658;2023-02-19T09:49:55;101102.75;;;10.18;100.00
29121;BME280;16191;49.548;8.658;2023-02-19T09:54:53;101109.56;;;10.25;100.00
29121;BME280;16191;49.548;8.658;2023-02-19T09:57:25;101101.63;;;10.29;100.00
29121;BME280;16191;49.548;8.658;2023-02-19T10:00:21;101122.41;;;10.34;100.00
29121;BME280;16191;49.548;8.658;2023-02-19T10:02:54;101105.81;;;10.37;100.00
29121;BME280;16191;49.548;8.658;2023-02-19T10:05:25;101111.88;;;10.37;100.00
29121;BME280;16191;49.548;8.658;2023-02-19T10:07:53;101107.41;;;10.41;100.00
29121;BME280;16191;49.548;8.658;2023-02-19T10:10:25;101102.09;;;10.45;100.00
29121;BME280;16191;49.548;8.658;2023-02-19T10:12:55;101098.22;;;10.60;100.00
29121;BME280;16191;49.548;8.658;2023-02-19T10:15:32;101093.44;;;10.76;100.00
29121;BME280;16191;49.548;8.658;2023-02-19T10:18:03;101098.88;;;10.67;100.00
29121;BME280;16191;49.548;8.658;2023-02-19T10:20:30;101099.78;;;10.65;100.00
29121;BME280;16191;49.548;8.658;2023-02-19T10:23:01;101096.88;;;10.76;100.00
29121;BME280;16191;49.548;8.658;2023-02-19T10:25:29;101095.31;;;10.71;100.00
29121;BME280;16191;49.548;8.658;2023-02-19T10:28:00;101098.41;;;10.83;100.00
29121;BME280;16191;49.548;8.658;2023-02-19T10:30:30;101100.09;;;10.86;100.00
29121;BME280;16191;49.548;8.658;2023-02-19T10:35:25;101110.34;;;10.92;100.00
29121;BME280;16191;49.548;8.658;2023-02-19T10:37:52;101111.81;;;11.02;100.00
29121;BME280;16191;49.548;8.658;2023-02-19T10:40:24;101119.75;;;10.99;100.00
29121;BME280;16191;49.548;8.658;2023-02-19T10:42:56;101126.00;;;10.93;100.00
29121;BME280;16191;49.548;8.658;2023-02-19T10:45:33;101130.41;;;10.91;100.00
29121;BME280;16191;49.548;8.658;2023-02-19T10:48:00;101124.84;;;11.04;100.00
29121;BME280;16191;49.548;8.658;2023-02-19T10:50:35;101121.78;;;11.19;100.00
29121;BME280;16191;49.548;8.658;2023-02-19T10:53:04;101126.22;;;11.45;100.00
29121;BME280;16191;49.548;8.658;2023-02-19T10:55:33;101123.56;;;11.46;100.00
29121;BME280;16191;49.548;8.658;2023-02-19T10:58:24;101131.66;;;11.66;100.00
29121;BME280;16191;49.548;8.658;2023-02-19T11:03:39;101137.22;;;11.84;100.00
29121;BME280;16191;49.548;8.658;2023-02-19T11:06:08;101148.69;;;11.80;100.00
29121;BME280;16191;49.548;8.658;2023-02-19T11:08:50;101148.31;;;11.62;100.00
29121;BME280;16191;49.548;8.658;2023-02-19T11:11:23;101174.44;;;11.64;100.00
29121;BME280;16191;49.548;8.658;2023-02-19T11:13:50;101187.75;;;11.55;100.00
29121;BME280;16191;49.548;8.658;2023-02-19T11:16:17;101166.50;;;11.67;100.00
29121;BME280;16191;49.548;8.658;2023-02-19T11:18:52;101176.91;;;11.68;100.00
29121;BME280;16191;49.548;8.658;2023-02-19T11:21:28;101160.84;;;11.51;100.00
29121;BME280;16191;49.548;8.658;2023-02-19T11:23:59;101173.06;;;11.51;100.00
29121;BME280;16191;49.548;8.658;2023-02-19T11:26:31;101167.09;;;11.47;100.00
29121;BME280;16191;49.548;8.658;2023-02-19T11:29:20;101166.03;;;11.53;100.00
29121;BME280;16191;49.548;8.658;2023-02-19T11:31:48;101172.56;;;11.67;100.00
29121;BME280;16191;49.548;8.658;2023-02-19T11:37:12;101172.31;;;11.75;100.00
29121;BME280;16191;49.548;8.658;2023-02-19T11:39:41;101164.41;;;11.78;100.00
29121;BME280;16191;49.548;8.658;2023-02-19T11:42:22;101165.41;;;11.73;100.00
29121;BME280;16191;49.548;8.658;2023-02-19T11:45:33;101152.66;;;11.63;100.00
29121;BME280;16191;49.548;8.658;2023-02-19T11:48:21;101152.75;;;11.60;100.00
29121;BME280;16191;49.548;8.658;2023-02-19T11:53:44;101153.63;;;11.89;100.00
29121;BME280;16191;49.548;8.658;2023-02-19T11:58:52;101159.09;;;11.81;100.00
29121;BME280;16191;49.548;8.658;2023-02-19T12:01:50;101164.47;;;11.75;100.00
29121;BME280;16191;49.548;8.658;2023-02-19T12:04:48;101160.38;;;11.68;100.00
29121;BME280;16191;49.548;8.658;2023-02-19T12:07:33;101155.91;;;11.70;100.00
29121;BME280;16191;49.548;8.658;2023-02-19T12:10:33;101161.09;;;11.72;100.00
29121;BME280;16191;49.548;8.658;2023-02-19T12:19:12;101148.03;;;11.72;100.00
29121;BME280;16191;49.548;8.658;2023-02-19T12:22:02;101172.38;;;11.74;98.80
29121;BME280;16191;49.548;8.658;2023-02-19T12:24:46;101177.47;;;11.49;100.00
29121;BME280;16191;49.548;8.658;2023-02-19T12:27:43;101173.44;;;11.39;100.00
29121;BME280;16191;49.548;8.658;2023-02-19T12:30:33;101162.69;;;11.48;100.00
29121;BME280;16191;49.548;8.658;2023-02-19T12:44:39;101151.72;;;11.37;100.00
29121;BME280;16191;49.548;8.658;2023-02-19T12:47:15;101164.34;;;11.22;100.00
29121;BME280;16191;49.548;8.658;2023-02-19T12:49:49;101155.97;;;11.41;100.00
29121;BME280;16191;49.548;8.658;2023-02-19T12:52:25;101155.03;;;11.43;100.00
29121;BME280;16191;49.548;8.658;2023-02-19T12:54:54;101166.06;;;11.51;100.00
29121;BME280;16191;49.548;8.658;2023-02-19T12:57:27;101166.00;;;11.54;100.00
29121;BME280;16191;49.548;8.658;2023-02-19T13:00:20;101164.09;;;11.59;100.00
29121;BME280;16191;49.548;8.658;2023-02-19T13:02:57;101155.78;;;11.75;100.00
29121;BME280;16191;49.548;8.658;2023-02-19T13:08:04;101139.44;;;11.96;100.00
29121;BME280;16191;49.548;8.658;2023-02-19T13:10:44;101133.28;;;12.50;100.00
29121;BME280;16191;49.548;8.658;2023-02-19T13:13:28;101123.91;;;12.92;96.19
29121;BME280;16191;49.548;8.658;2023-02-19T13:16:01;101133.84;;;13.06;94.97
29121;BME280;16191;49.548;8.658;2023-02-19T13:18:36;101137.34;;;13.07;91.31
29121;BME280;16191;49.548;8.658;2023-02-19T13:21:05;101132.78;;;13.12;88.77
29121;BME280;16191;49.548;8.658;2023-02-19T13:23:35;101127.69;;;13.32;86.61
29121;BME280;16191;49.548;8.658;2023-02-19T13:32:35;101121.94;;;12.74;92.73
29121;BME280;16191;49.548;8.658;2023-02-19T13:37:16;101133.28;;;12.50;90.96
29121;BME280;16191;49.548;8.658;2023-02-19T13:39:47;101129.75;;;12.26;94.42
29121;BME280;16191;49.548;8.658;2023-02-19T13:42:25;101128.75;;;12.04;95.72
29121;BME280;16191;49.548;8.658;2023-02-19T13:44:52;101125.94;;;12.10;96.25
29121;BME280;16191;49.548;8.658;2023-02-19T13:48:29;101131.09;;;12.11;96.21
29121;BME280;16191;49.548;8.658;2023-02-19T13:50:32;101132.88;;;12.11;96.10
29121;BME280;16191;49.548;8.658;2023-02-19T13:59:11;101131.75;;;12.18;95.25
29121;BME280;16191;49.548;8.658;2023-02-19T14:04:39;101139.53;;;11.93;96.29
29121;BME280;16191;49.548;8.658;2023-02-19T14:14:34;101147.50;;;11.90;97.21
29121;BME280;16191;49.548;8.658;2023-02-19T14:19:47;101153.47;;;11.93;99.82
29121;BME280;16191;49.548;8.658;2023-02-19T14:30:52;101177.75;;;11.69;100.00
29121;BME280;16191;49.548;8.658;2023-02-19T14:33:30;101183.78;;;11.71;100.00
29121;BME280;16191;49.548;8.658;2023-02-19T14:36:18;101183.34;;;11.57;100.00
29121;BME280;16191;49.548;8.658;2023-02-19T14:38:54;101180.31;;;11.71;100.00
29121;BME280;16191;49.548;8.658;2023-02-19T14:41:22;101182.53;;;11.55;100.00
29121;BME280;16191;49.548;8.658;2023-02-19T14:43:51;101190.63;;;11.47;100.00